Impacts TAF Board INFO
FOR SITUATIONAL AWARENESS. NOT TO BE USED FOR FLIGHT PLANNING PURPOSES.
IDs:

KATL - Atlanta/Hartsfield-J, GA, US

Issued at 1943 UTC 16 Aug 2018
Updated at 2018 UTC 16 Aug 2018
Potential Impact None Slight Moderate High
Time1952Z 16/21Z 16/22Z 16/23Z 17/00Z 17/01Z 17/02Z 17/03Z 17/04Z 17/05Z 17/06Z 17/07Z 17/08Z 17/09Z>>
Type OBS PRVL PRVL PRVL PRVL PRVL PRVL PRVL PRVL PRVL PRVL PRVL PRVL PRVL
VIS 10 >6 >6 >6 >6 >6 >6 >6 >6 >6 >6 >6 >6 >6
CIG -- -- -- -- -- -- -- -- -- -- -- -- -- --
Cover SCT SCT SCT SCT SCT SCT SCT SCT SCT SCT SCT SCT SCT SCT
FltCat VFR VFR VFR VFR VFR VFR VFR VFR VFR VFR VFR VFR VFR VFR
WX -- VCSH VCSH VCSH VCSH -- -- -- -- -- -- -- -- --
WDir 190 200 200 200 200 200 200 200 200 200 200 200 200 200
WSpd 5 6 6 6 6 5 5 5 5 5 5 5 4 4
WGst -- -- -- -- -- -- -- -- -- -- -- -- -- --

Raw TAF
KATL 161943Z 1620/1724 20006KT P6SM VCSH SCT050
  FM170100 20005KT P6SM FEW050 SCT250
  FM170800 20004KT P6SM SCT100 SCT250
  FM171500 24007KT P6SM BKN040
  PROB30 1718/1722 -TSRA BKN030CB


Raw METAR
KATL 161952Z 19005KT 10SM SCT050TCU SCT250 32/19 A3015 RMK AO2 LTG DSNT E AND SE SLP196 CB DSNT E-SE TCU N-NE-E T03220194
KATL 161852Z 20007KT 150V230 10SM BKN048 BKN250 32/20 A3016 RMK AO2 SLP200 MDT CU OHD-N-E-S NW T03220200
KATL 161752Z COR 00000KT 10SM SCT045 SCT250 32/22 A3017 RMK AO2 MDT CU ALQDS SLP206 T03170217 10322 20239 58004

METAR Board
Radar Display
Forecast Discussion

FOR SITUATIONAL AWARENESS. NOT TO BE USED FOR FLIGHT PLANNING PURPOSES.